sensor_id;sensor_type;location;lat;lon;timestamp;temperature;humidity
18777;DHT22;9517;51.174;4.160;2022-07-29T00:02:06;19.40;99.90
18777;DHT22;9517;51.174;4.160;2022-07-29T00:04:36;19.30;99.90
18777;DHT22;9517;51.174;4.160;2022-07-29T00:07:03;19.30;99.90
18777;DHT22;9517;51.174;4.160;2022-07-29T00:09:31;19.30;99.90
18777;DHT22;9517;51.174;4.160;2022-07-29T00:12:00;19.30;99.90
18777;DHT22;9517;51.174;4.160;2022-07-29T00:14:27;19.10;99.90
18777;DHT22;9517;51.174;4.160;2022-07-29T00:16:54;19.20;99.90
18777;DHT22;9517;51.174;4.160;2022-07-29T00:19:21;19.10;99.90
18777;DHT22;9517;51.174;4.160;2022-07-29T00:21:50;19.10;99.90
18777;DHT22;9517;51.174;4.160;2022-07-29T00:24:17;18.90;99.90
18777;DHT22;9517;51.174;4.160;2022-07-29T00:26:44;19.00;99.90
18777;DHT22;9517;51.174;4.160;2022-07-29T00:29:11;19.00;99.90
18777;DHT22;9517;51.174;4.160;2022-07-29T00:31:38;18.90;99.90
18777;DHT22;9517;51.174;4.160;2022-07-29T00:34:05;19.00;99.90
18777;DHT22;9517;51.174;4.160;2022-07-29T00:36:54;18.90;99.90
18777;DHT22;9517;51.174;4.160;2022-07-29T00:39:20;18.90;99.90
18777;DHT22;9517;51.174;4.160;2022-07-29T00:41:47;19.00;99.90
18777;DHT22;9517;51.174;4.160;2022-07-29T00:44:14;19.10;99.90
18777;DHT22;9517;51.174;4.160;2022-07-29T00:46:41;19.20;99.90
18777;DHT22;9517;51.174;4.160;2022-07-29T00:49:08;19.10;99.90
18777;DHT22;9517;51.174;4.160;2022-07-29T00:51:36;19.10;99.90
18777;DHT22;9517;51.174;4.160;2022-07-29T00:54:06;19.10;99.90
18777;DHT22;9517;51.174;4.160;2022-07-29T00:56:33;19.10;99.90
18777;DHT22;9517;51.174;4.160;2022-07-29T00:59:00;19.00;99.90
18777;DHT22;9517;51.174;4.160;2022-07-29T01:01:28;19.00;99.90
18777;DHT22;9517;51.174;4.160;2022-07-29T01:03:55;19.00;99.90
18777;DHT22;9517;51.174;4.160;2022-07-29T01:06:22;19.00;99.90
18777;DHT22;9517;51.174;4.160;2022-07-29T01:08:50;19.00;99.90
18777;DHT22;9517;51.174;4.160;2022-07-29T01:11:19;19.00;99.90
18777;DHT22;9517;51.174;4.160;2022-07-29T01:13:47;19.00;99.90
18777;DHT22;9517;51.174;4.160;2022-07-29T01:16:21;19.00;99.90
18777;DHT22;9517;51.174;4.160;2022-07-29T01:18:49;18.90;99.90
18777;DHT22;9517;51.174;4.160;2022-07-29T01:21:40;18.90;99.90
18777;DHT22;9517;51.174;4.160;2022-07-29T01:24:39;18.90;99.90
18777;DHT22;9517;51.174;4.160;2022-07-29T01:27:28;18.90;99.90
18777;DHT22;9517;51.174;4.160;2022-07-29T01:30:02;18.90;99.90
18777;DHT22;9517;51.174;4.160;2022-07-29T01:32:33;19.00;99.90
18777;DHT22;9517;51.174;4.160;2022-07-29T01:35:04;18.90;99.90
18777;DHT22;9517;51.174;4.160;2022-07-29T01:37:38;18.80;99.90
18777;DHT22;9517;51.174;4.160;2022-07-29T01:40:11;18.70;99.90
18777;DHT22;9517;51.174;4.160;2022-07-29T01:42:43;18.60;99.90
18777;DHT22;9517;51.174;4.160;2022-07-29T01:45:15;18.50;99.90
18777;DHT22;9517;51.174;4.160;2022-07-29T01:47:49;18.40;99.90
18777;DHT22;9517;51.174;4.160;2022-07-29T01:50:26;18.40;99.90
18777;DHT22;9517;51.174;4.160;2022-07-29T01:52:59;18.40;99.90
18777;DHT22;9517;51.174;4.160;2022-07-29T01:55:28;18.30;99.90
18777;DHT22;9517;51.174;4.160;2022-07-29T01:57:57;18.20;99.90
18777;DHT22;9517;51.174;4.160;2022-07-29T02:00:27;18.20;99.90
18777;DHT22;9517;51.174;4.160;2022-07-29T02:02:58;18.20;99.90
18777;DHT22;9517;51.174;4.160;2022-07-29T02:05:27;18.20;99.90
18777;DHT22;9517;51.174;4.160;2022-07-29T02:07:56;18.20;99.90
18777;DHT22;9517;51.174;4.160;2022-07-29T02:10:28;18.20;99.90
18777;DHT22;9517;51.174;4.160;2022-07-29T02:12:57;18.20;99.90
18777;DHT22;9517;51.174;4.160;2022-07-29T02:15:28;18.00;99.90
18777;DHT22;9517;51.174;4.160;2022-07-29T02:18:01;18.00;99.90
18777;DHT22;9517;51.174;4.160;2022-07-29T02:20:29;17.80;99.90
18777;DHT22;9517;51.174;4.160;2022-07-29T02:22:59;17.80;99.90
18777;DHT22;9517;51.174;4.160;2022-07-29T02:25:27;17.80;99.90
18777;DHT22;9517;51.174;4.160;2022-07-29T02:27:56;17.70;99.90
18777;DHT22;9517;51.174;4.160;2022-07-29T02:30:24;17.60;99.90
18777;DHT22;9517;51.174;4.160;2022-07-29T02:32:53;17.50;99.90
18777;DHT22;9517;51.174;4.160;2022-07-29T02:35:21;17.40;99.90
18777;DHT22;9517;51.174;4.160;2022-07-29T02:37:49;17.40;99.90
18777;DHT22;9517;51.174;4.160;2022-07-29T02:40:32;17.40;99.90
18777;DHT22;9517;51.174;4.160;2022-07-29T02:43:01;17.40;99.90
18777;DHT22;9517;51.174;4.160;2022-07-29T02:45:29;17.20;99.90
18777;DHT22;9517;51.174;4.160;2022-07-29T02:48:00;17.10;99.90
18777;DHT22;9517;51.174;4.160;2022-07-29T02:50:31;17.10;99.90
18777;DHT22;9517;51.174;4.160;2022-07-29T02:53:04;17.20;99.90
18777;DHT22;9517;51.174;4.160;2022-07-29T02:55:34;17.20;99.90
18777;DHT22;9517;51.174;4.160;2022-07-29T02:58:05;17.10;99.90
18777;DHT22;9517;51.174;4.160;2022-07-29T03:00:38;17.00;99.90
18777;DHT22;9517;51.174;4.160;2022-07-29T03:03:10;17.10;99.90
18777;DHT22;9517;51.174;4.160;2022-07-29T03:05:39;17.10;99.90
18777;DHT22;9517;51.174;4.160;2022-07-29T03:08:08;17.00;99.90
18777;DHT22;9517;51.174;4.160;2022-07-29T03:10:37;16.90;99.90
18777;DHT22;9517;51.174;4.160;2022-07-29T03:13:06;16.80;99.90
18777;DHT22;9517;51.174;4.160;2022-07-29T03:15:34;16.80;99.90
18777;DHT22;9517;51.174;4.160;2022-07-29T03:18:02;16.70;99.90
18777;DHT22;9517;51.174;4.160;2022-07-29T03:20:31;16.70;99.90
18777;DHT22;9517;51.174;4.160;2022-07-29T03:22:59;16.70;99.90
18777;DHT22;9517;51.174;4.160;2022-07-29T03:25:26;16.70;99.90
18777;DHT22;9517;51.174;4.160;2022-07-29T03:27:53;16.70;99.90
18777;DHT22;9517;51.174;4.160;2022-07-29T03:30:22;16.70;99.90
18777;DHT22;9517;51.174;4.160;2022-07-29T03:32:50;16.70;99.90
18777;DHT22;9517;51.174;4.160;2022-07-29T03:35:17;16.60;99.90
18777;DHT22;9517;51.174;4.160;2022-07-29T03:37:46;16.50;99.90
18777;DHT22;9517;51.174;4.160;2022-07-29T03:40:16;16.40;99.90
18777;DHT22;9517;51.174;4.160;2022-07-29T03:42:44;16.30;99.90
18777;DHT22;9517;51.174;4.160;2022-07-29T03:45:15;16.40;99.90
18777;DHT22;9517;51.174;4.160;2022-07-29T03:47:47;16.30;99.90
18777;DHT22;9517;51.174;4.160;2022-07-29T03:50:15;16.30;99.90
18777;DHT22;9517;51.174;4.160;2022-07-29T03:52:46;16.30;99.90
18777;DHT22;9517;51.174;4.160;2022-07-29T03:55:15;16.30;99.90
18777;DHT22;9517;51.174;4.160;2022-07-29T03:57:44;16.30;99.90
18777;DHT22;9517;51.174;4.160;2022-07-29T04:00:13;16.30;99.90
18777;DHT22;9517;51.174;4.160;2022-07-29T04:02:41;16.20;99.90
18777;DHT22;9517;51.174;4.160;2022-07-29T04:05:13;16.20;99.90
18777;DHT22;9517;51.174;4.160;2022-07-29T04:07:40;16.20;99.90
18777;DHT22;9517;51.174;4.160;2022-07-29T04:10:09;16.20;99.90
18777;DHT22;9517;51.174;4.160;2022-07-29T04:12:36;16.20;99.90
18777;DHT22;9517;51.174;4.160;2022-07-29T04:15:03;16.10;99.90
18777;DHT22;9517;51.174;4.160;2022-07-29T04:17:30;16.10;99.90
18777;DHT22;9517;51.174;4.160;2022-07-29T04:19:57;16.00;99.90
18777;DHT22;9517;51.174;4.160;2022-07-29T04:22:25;16.00;99.90
18777;DHT22;9517;51.174;4.160;2022-07-29T04:24:52;16.00;99.90
18777;DHT22;9517;51.174;4.160;2022-07-29T04:27:20;16.00;99.90
18777;DHT22;9517;51.174;4.160;2022-07-29T04:29:47;15.90;99.90
18777;DHT22;9517;51.174;4.160;2022-07-29T04:32:14;15.90;99.90
18777;DHT22;9517;51.174;4.160;2022-07-29T04:34:41;15.90;99.90
18777;DHT22;9517;51.174;4.160;2022-07-29T04:37:11;15.90;99.90
18777;DHT22;9517;51.174;4.160;2022-07-29T04:39:38;15.80;99.90
18777;DHT22;9517;51.174;4.160;2022-07-29T04:42:05;15.70;99.90
18777;DHT22;9517;51.174;4.160;2022-07-29T04:44:34;15.80;99.90
18777;DHT22;9517;51.174;4.160;2022-07-29T04:47:01;15.80;99.90
18777;DHT22;9517;51.174;4.160;2022-07-29T04:49:28;15.80;99.90
18777;DHT22;9517;51.174;4.160;2022-07-29T04:51:55;15.90;99.90
18777;DHT22;9517;51.174;4.160;2022-07-29T04:54:22;16.00;99.90
18777;DHT22;9517;51.174;4.160;2022-07-29T04:56:49;16.00;99.90
18777;DHT22;9517;51.174;4.160;2022-07-29T04:59:16;16.10;99.90
18777;DHT22;9517;51.174;4.160;2022-07-29T05:01:45;16.20;99.90
18777;DHT22;9517;51.174;4.160;2022-07-29T05:04:12;16.20;99.90
18777;DHT22;9517;51.174;4.160;2022-07-29T05:06:39;16.20;99.90
18777;DHT22;9517;51.174;4.160;2022-07-29T05:09:06;16.20;99.90
18777;DHT22;9517;51.174;4.160;2022-07-29T05:11:33;16.10;99.90
18777;DHT22;9517;51.174;4.160;2022-07-29T05:14:00;16.20;99.90
18777;DHT22;9517;51.174;4.160;2022-07-29T05:16:27;16.20;99.90
18777;DHT22;9517;51.174;4.160;2022-07-29T05:18:55;16.20;99.90
18777;DHT22;9517;51.174;4.160;2022-07-29T05:21:22;16.10;99.90
18777;DHT22;9517;51.174;4.160;2022-07-29T05:23:49;16.20;99.90
18777;DHT22;9517;51.174;4.160;2022-07-29T05:26:16;16.30;99.90
18777;DHT22;9517;51.174;4.160;2022-07-29T05:28:43;16.40;99.90
18777;DHT22;9517;51.174;4.160;2022-07-29T05:31:11;16.50;99.90
18777;DHT22;9517;51.174;4.160;2022-07-29T05:33:40;16.60;99.90
18777;DHT22;9517;51.174;4.160;2022-07-29T05:36:08;16.60;99.90
18777;DHT22;9517;51.174;4.160;2022-07-29T05:38:35;16.70;99.90
18777;DHT22;9517;51.174;4.160;2022-07-29T05:41:03;16.70;99.90
18777;DHT22;9517;51.174;4.160;2022-07-29T05:43:30;16.80;99.90
18777;DHT22;9517;51.174;4.160;2022-07-29T05:45:57;17.00;99.90
18777;DHT22;9517;51.174;4.160;2022-07-29T05:48:24;17.00;99.90
18777;DHT22;9517;51.174;4.160;2022-07-29T05:50:51;17.10;99.90
18777;DHT22;9517;51.174;4.160;2022-07-29T05:53:20;17.30;99.90
18777;DHT22;9517;51.174;4.160;2022-07-29T05:55:47;17.50;99.90
18777;DHT22;9517;51.174;4.160;2022-07-29T05:58:14;17.60;99.90
18777;DHT22;9517;51.174;4.160;2022-07-29T06:00:41;17.60;99.90
18777;DHT22;9517;51.174;4.160;2022-07-29T06:03:08;17.50;99.90
18777;DHT22;9517;51.174;4.160;2022-07-29T06:05:36;17.50;99.90
18777;DHT22;9517;51.174;4.160;2022-07-29T06:08:04;17.70;99.90
18777;DHT22;9517;51.174;4.160;2022-07-29T06:10:34;17.80;99.90
18777;DHT22;9517;51.174;4.160;2022-07-29T06:13:01;17.70;99.90
18777;DHT22;9517;51.174;4.160;2022-07-29T06:15:28;17.60;99.90
18777;DHT22;9517;51.174;4.160;2022-07-29T06:17:55;17.80;99.90
18777;DHT22;9517;51.174;4.160;2022-07-29T06:20:22;18.00;99.90
18777;DHT22;9517;51.174;4.160;2022-07-29T06:22:49;18.10;99.90
18777;DHT22;9517;51.174;4.160;2022-07-29T06:25:16;18.20;99.90
18777;DHT22;9517;51.174;4.160;2022-07-29T06:27:48;18.40;99.90
18777;DHT22;9517;51.174;4.160;2022-07-29T06:30:15;18.60;99.90
18777;DHT22;9517;51.174;4.160;2022-07-29T06:32:42;18.60;99.90
18777;DHT22;9517;51.174;4.160;2022-07-29T06:35:09;18.70;99.90
18777;DHT22;9517;51.174;4.160;2022-07-29T06:37:36;19.10;99.90
18777;DHT22;9517;51.174;4.160;2022-07-29T06:40:04;19.20;99.90
18777;DHT22;9517;51.174;4.160;2022-07-29T06:42:50;19.40;99.90
18777;DHT22;9517;51.174;4.160;2022-07-29T06:45:17;19.40;99.90
18777;DHT22;9517;51.174;4.160;2022-07-29T06:47:44;19.40;99.90
18777;DHT22;9517;51.174;4.160;2022-07-29T06:50:11;19.70;99.90
18777;DHT22;9517;51.174;4.160;2022-07-29T06:52:39;19.80;99.90
18777;DHT22;9517;51.174;4.160;2022-07-29T06:55:08;19.80;99.90
18777;DHT22;9517;51.174;4.160;2022-07-29T06:57:35;19.90;99.90
18777;DHT22;9517;51.174;4.160;2022-07-29T07:00:04;20.10;99.90
18777;DHT22;9517;51.174;4.160;2022-07-29T07:02:32;20.40;99.90
18777;DHT22;9517;51.174;4.160;2022-07-29T07:04:59;20.50;99.90
18777;DHT22;9517;51.174;4.160;2022-07-29T07:07:26;20.80;99.90
18777;DHT22;9517;51.174;4.160;2022-07-29T07:09:53;20.90;99.90
18777;DHT22;9517;51.174;4.160;2022-07-29T07:12:20;21.00;99.90
18777;DHT22;9517;51.174;4.160;2022-07-29T07:14:47;21.20;99.90
18777;DHT22;9517;51.174;4.160;2022-07-29T07:17:15;21.40;99.90
18777;DHT22;9517;51.174;4.160;2022-07-29T07:19:42;21.80;99.90
18777;DHT22;9517;51.174;4.160;2022-07-29T07:22:10;22.30;99.90
18777;DHT22;9517;51.174;4.160;2022-07-29T07:24:37;22.70;99.90
18777;DHT22;9517;51.174;4.160;2022-07-29T07:27:04;22.70;99.90
18777;DHT22;9517;51.174;4.160;2022-07-29T07:29:32;22.40;99.90
18777;DHT22;9517;51.174;4.160;2022-07-29T07:31:59;22.30;99.90
18777;DHT22;9517;51.174;4.160;2022-07-29T07:34:27;22.00;99.90
18777;DHT22;9517;51.174;4.160;2022-07-29T07:36:55;22.00;99.90
18777;DHT22;9517;51.174;4.160;2022-07-29T07:39:22;22.00;99.90
18777;DHT22;9517;51.174;4.160;2022-07-29T07:41:49;22.00;99.90
18777;DHT22;9517;51.174;4.160;2022-07-29T07:44:19;22.00;99.90
18777;DHT22;9517;51.174;4.160;2022-07-29T07:46:46;22.00;99.90
18777;DHT22;9517;51.174;4.160;2022-07-29T07:49:13;22.10;99.90
18777;DHT22;9517;51.174;4.160;2022-07-29T07:51:41;22.20;99.90
18777;DHT22;9517;51.174;4.160;2022-07-29T07:54:08;22.20;99.90
18777;DHT22;9517;51.174;4.160;2022-07-29T07:56:35;22.40;99.90
18777;DHT22;9517;51.174;4.160;2022-07-29T07:59:02;23.00;99.90
18777;DHT22;9517;51.174;4.160;2022-07-29T08:01:29;23.20;99.90
18777;DHT22;9517;51.174;4.160;2022-07-29T08:03:56;23.50;99.90
18777;DHT22;9517;51.174;4.160;2022-07-29T08:06:23;23.60;99.90
18777;DHT22;9517;51.174;4.160;2022-07-29T08:08:52;23.60;99.90
18777;DHT22;9517;51.174;4.160;2022-07-29T08:11:20;23.50;99.90
18777;DHT22;9517;51.174;4.160;2022-07-29T08:13:47;23.50;99.90
18777;DHT22;9517;51.174;4.160;2022-07-29T08:16:14;23.10;99.90
18777;DHT22;9517;51.174;4.160;2022-07-29T08:18:42;22.90;99.90
18777;DHT22;9517;51.174;4.160;2022-07-29T08:21:10;22.80;99.90
18777;DHT22;9517;51.174;4.160;2022-07-29T08:23:37;23.00;99.90
18777;DHT22;9517;51.174;4.160;2022-07-29T08:26:07;23.00;99.90
18777;DHT22;9517;51.174;4.160;2022-07-29T08:28:36;23.20;99.90
18777;DHT22;9517;51.174;4.160;2022-07-29T08:31:04;23.60;99.90
18777;DHT22;9517;51.174;4.160;2022-07-29T08:33:31;23.60;99.90
18777;DHT22;9517;51.174;4.160;2022-07-29T08:35:58;23.80;99.90
18777;DHT22;9517;51.174;4.160;2022-07-29T08:38:25;23.90;99.90
18777;DHT22;9517;51.174;4.160;2022-07-29T08:40:53;23.80;99.90
18777;DHT22;9517;51.174;4.160;2022-07-29T08:43:24;23.60;99.90
18777;DHT22;9517;51.174;4.160;2022-07-29T08:45:52;23.70;99.90
18777;DHT22;9517;51.174;4.160;2022-07-29T08:48:21;23.80;99.90
18777;DHT22;9517;51.174;4.160;2022-07-29T08:50:52;23.90;99.90
18777;DHT22;9517;51.174;4.160;2022-07-29T08:53:19;23.60;99.90
18777;DHT22;9517;51.174;4.160;2022-07-29T08:55:49;23.60;99.90
18777;DHT22;9517;51.174;4.160;2022-07-29T08:58:17;23.50;99.90
18777;DHT22;9517;51.174;4.160;2022-07-29T09:00:48;23.60;99.90
18777;DHT22;9517;51.174;4.160;2022-07-29T09:03:18;23.50;99.90
18777;DHT22;9517;51.174;4.160;2022-07-29T09:05:47;23.70;99.90
18777;DHT22;9517;51.174;4.160;2022-07-29T09:08:15;24.10;99.90
18777;DHT22;9517;51.174;4.160;2022-07-29T09:10:43;24.10;99.90
18777;DHT22;9517;51.174;4.160;2022-07-29T09:13:10;24.30;99.90
18777;DHT22;9517;51.174;4.160;2022-07-29T09:15:37;24.30;99.90
18777;DHT22;9517;51.174;4.160;2022-07-29T09:18:06;24.60;99.90
18777;DHT22;9517;51.174;4.160;2022-07-29T09:20:33;24.80;99.90
18777;DHT22;9517;51.174;4.160;2022-07-29T09:23:14;25.00;99.90
18777;DHT22;9517;51.174;4.160;2022-07-29T09:25:41;25.10;99.90
18777;DHT22;9517;51.174;4.160;2022-07-29T09:28:10;25.10;99.90
18777;DHT22;9517;51.174;4.160;2022-07-29T09:30:50;25.00;99.90
18777;DHT22;9517;51.174;4.160;2022-07-29T09:33:19;25.40;99.90
18777;DHT22;9517;51.174;4.160;2022-07-29T09:35:59;25.80;99.90
18777;DHT22;9517;51.174;4.160;2022-07-29T09:38:26;25.60;99.90
18777;DHT22;9517;51.174;4.160;2022-07-29T09:40:57;25.40;99.90
18777;DHT22;9517;51.174;4.160;2022-07-29T09:43:24;25.20;99.90
18777;DHT22;9517;51.174;4.160;2022-07-29T09:45:51;25.80;99.90
18777;DHT22;9517;51.174;4.160;2022-07-29T09:48:22;25.50;99.90
18777;DHT22;9517;51.174;4.160;2022-07-29T09:50:50;25.80;99.90
18777;DHT22;9517;51.174;4.160;2022-07-29T09:53:31;25.60;99.90
18777;DHT22;9517;51.174;4.160;2022-07-29T09:55:58;26.10;99.90
18777;DHT22;9517;51.174;4.160;2022-07-29T09:58:26;26.50;99.90
18777;DHT22;9517;51.174;4.160;2022-07-29T10:00:56;26.70;99.90
18777;DHT22;9517;51.174;4.160;2022-07-29T10:03:25;27.40;99.90
18777;DHT22;9517;51.174;4.160;2022-07-29T10:06:08;27.30;99.90
18777;DHT22;9517;51.174;4.160;2022-07-29T10:08:36;27.50;99.90
18777;DHT22;9517;51.174;4.160;2022-07-29T10:11:10;27.00;99.90
18777;DHT22;9517;51.174;4.160;2022-07-29T10:13:38;26.90;99.90
18777;DHT22;9517;51.174;4.160;2022-07-29T10:16:06;26.60;99.90
18777;DHT22;9517;51.174;4.160;2022-07-29T10:18:35;26.40;99.90
18777;DHT22;9517;51.174;4.160;2022-07-29T10:21:03;27.10;99.90
18777;DHT22;9517;51.174;4.160;2022-07-29T10:23:31;27.60;99.90
18777;DHT22;9517;51.174;4.160;2022-07-29T10:25:58;27.30;99.90
18777;DHT22;9517;51.174;4.160;2022-07-29T10:28:25;26.80;99.90
18777;DHT22;9517;51.174;4.160;2022-07-29T10:31:00;27.40;99.90
18777;DHT22;9517;51.174;4.160;2022-07-29T10:33:41;27.70;99.90
18777;DHT22;9517;51.174;4.160;2022-07-29T10:36:32;27.40;99.90
18777;DHT22;9517;51.174;4.160;2022-07-29T10:39:11;27.70;99.90
18777;DHT22;9517;51.174;4.160;2022-07-29T10:42:01;28.20;99.90
18777;DHT22;9517;51.174;4.160;2022-07-29T10:44:32;29.10;99.90
18777;DHT22;9517;51.174;4.160;2022-07-29T10:47:00;29.90;99.90
18777;DHT22;9517;51.174;4.160;2022-07-29T10:49:28;30.70;99.90
18777;DHT22;9517;51.174;4.160;2022-07-29T10:52:01;30.30;99.90
18777;DHT22;9517;51.174;4.160;2022-07-29T10:54:43;30.00;99.90
18777;DHT22;9517;51.174;4.160;2022-07-29T10:57:17;30.40;99.90
18777;DHT22;9517;51.174;4.160;2022-07-29T10:59:46;30.10;99.90
18777;DHT22;9517;51.174;4.160;2022-07-29T11:02:44;29.40;99.90
18777;DHT22;9517;51.174;4.160;2022-07-29T11:05:16;29.10;99.90
18777;DHT22;9517;51.174;4.160;2022-07-29T11:08:19;29.70;99.90
18777;DHT22;9517;51.174;4.160;2022-07-29T11:10:49;30.70;99.90
18777;DHT22;9517;51.174;4.160;2022-07-29T11:13:48;30.30;99.90
18777;DHT22;9517;51.174;4.160;2022-07-29T11:16:18;31.10;99.90
18777;DHT22;9517;51.174;4.160;2022-07-29T11:19:22;32.40;99.90
18777;DHT22;9517;51.174;4.160;2022-07-29T11:21:50;33.50;99.90
18777;DHT22;9517;51.174;4.160;2022-07-29T11:24:20;33.40;98.60
18777;DHT22;9517;51.174;4.160;2022-07-29T11:27:11;32.80;98.60
18777;DHT22;9517;51.174;4.160;2022-07-29T11:29:51;32.20;97.70
18777;DHT22;9517;51.174;4.160;2022-07-29T11:32:19;32.20;98.10
18777;DHT22;9517;51.174;4.160;2022-07-29T11:34:47;32.00;98.00
18777;DHT22;9517;51.174;4.160;2022-07-29T11:37:20;32.20;96.20
18777;DHT22;9517;51.174;4.160;2022-07-29T11:40:12;33.40;96.80
18777;DHT22;9517;51.174;4.160;2022-07-29T11:42:50;34.70;95.90
18777;DHT22;9517;51.174;4.160;2022-07-29T11:45:25;35.00;93.00
18777;DHT22;9517;51.174;4.160;2022-07-29T11:47:58;33.80;93.20
18777;DHT22;9517;51.174;4.160;2022-07-29T11:50:34;33.90;92.20
18777;DHT22;9517;51.174;4.160;2022-07-29T11:53:09;34.70;92.20
18777;DHT22;9517;51.174;4.160;2022-07-29T11:55:38;35.10;92.40
18777;DHT22;9517;51.174;4.160;2022-07-29T11:58:05;36.50;91.00
18777;DHT22;9517;51.174;4.160;2022-07-29T12:00:35;36.00;87.00
18777;DHT22;9517;51.174;4.160;2022-07-29T12:03:05;35.20;86.80
18777;DHT22;9517;51.174;4.160;2022-07-29T12:05:35;34.30;90.50
18777;DHT22;9517;51.174;4.160;2022-07-29T12:08:12;35.60;88.50
18777;DHT22;9517;51.174;4.160;2022-07-29T12:10:40;35.90;88.00
18777;DHT22;9517;51.174;4.160;2022-07-29T12:13:08;36.20;85.70
18777;DHT22;9517;51.174;4.160;2022-07-29T12:15:35;36.10;87.10
18777;DHT22;9517;51.174;4.160;2022-07-29T12:18:20;34.90;85.80
18777;DHT22;9517;51.174;4.160;2022-07-29T12:20:48;34.50;85.70
18777;DHT22;9517;51.174;4.160;2022-07-29T12:23:16;34.10;88.90
18777;DHT22;9517;51.174;4.160;2022-07-29T12:25:44;35.40;87.20
18777;DHT22;9517;51.174;4.160;2022-07-29T12:28:12;35.80;84.10
18777;DHT22;9517;51.174;4.160;2022-07-29T12:30:43;35.60;84.20
18777;DHT22;9517;51.174;4.160;2022-07-29T12:33:19;34.90;84.70
18777;DHT22;9517;51.174;4.160;2022-07-29T12:35:50;34.20;86.70
18777;DHT22;9517;51.174;4.160;2022-07-29T12:38:20;33.20;89.50
18777;DHT22;9517;51.174;4.160;2022-07-29T12:40:48;32.10;91.00
18777;DHT22;9517;51.174;4.160;2022-07-29T12:43:17;32.60;90.60
18777;DHT22;9517;51.174;4.160;2022-07-29T12:45:46;33.00;89.40
18777;DHT22;9517;51.174;4.160;2022-07-29T12:48:14;32.90;90.00
18777;DHT22;9517;51.174;4.160;2022-07-29T12:50:55;32.50;89.80
18777;DHT22;9517;51.174;4.160;2022-07-29T12:53:23;32.20;90.30
18777;DHT22;9517;51.174;4.160;2022-07-29T12:55:52;32.60;90.00
18777;DHT22;9517;51.174;4.160;2022-07-29T12:58:31;33.70;90.80
18777;DHT22;9517;51.174;4.160;2022-07-29T13:01:06;35.50;88.20
18777;DHT22;9517;51.174;4.160;2022-07-29T13:03:51;35.00;85.50
18777;DHT22;9517;51.174;4.160;2022-07-29T13:06:28;34.00;87.30
18777;DHT22;9517;51.174;4.160;2022-07-29T13:09:07;33.40;87.80
18777;DHT22;9517;51.174;4.160;2022-07-29T13:11:36;32.90;88.50
18777;DHT22;9517;51.174;4.160;2022-07-29T13:14:04;32.70;88.50
18777;DHT22;9517;51.174;4.160;2022-07-29T13:16:32;33.10;90.90
18777;DHT22;9517;51.174;4.160;2022-07-29T13:19:06;34.70;89.30
18777;DHT22;9517;51.174;4.160;2022-07-29T13:21:34;34.80;86.00
18777;DHT22;9517;51.174;4.160;2022-07-29T13:24:03;34.60;86.50
18777;DHT22;9517;51.174;4.160;2022-07-29T13:26:30;33.70;85.20
18777;DHT22;9517;51.174;4.160;2022-07-29T13:28:57;32.60;87.20
18777;DHT22;9517;51.174;4.160;2022-07-29T13:31:24;31.80;90.00
18777;DHT22;9517;51.174;4.160;2022-07-29T13:33:52;32.90;90.60
18777;DHT22;9517;51.174;4.160;2022-07-29T13:36:19;33.80;89.20
18777;DHT22;9517;51.174;4.160;2022-07-29T13:38:46;34.00;83.90
18777;DHT22;9517;51.174;4.160;2022-07-29T13:41:14;34.00;84.80
18777;DHT22;9517;51.174;4.160;2022-07-29T13:43:41;33.60;85.70
18777;DHT22;9517;51.174;4.160;2022-07-29T13:46:08;33.40;85.50
18777;DHT22;9517;51.174;4.160;2022-07-29T13:48:36;33.80;85.60
18777;DHT22;9517;51.174;4.160;2022-07-29T13:51:03;33.70;85.90
18777;DHT22;9517;51.174;4.160;2022-07-29T13:53:30;33.70;85.00
18777;DHT22;9517;51.174;4.160;2022-07-29T13:55:57;34.20;85.40
18777;DHT22;9517;51.174;4.160;2022-07-29T13:58:25;34.50;84.60
18777;DHT22;9517;51.174;4.160;2022-07-29T14:00:52;33.90;84.40
18777;DHT22;9517;51.174;4.160;2022-07-29T14:03:19;33.70;85.80
18777;DHT22;9517;51.174;4.160;2022-07-29T14:05:46;33.60;84.60
18777;DHT22;9517;51.174;4.160;2022-07-29T14:08:13;33.50;84.80
18777;DHT22;9517;51.174;4.160;2022-07-29T14:10:40;33.80;84.10
18777;DHT22;9517;51.174;4.160;2022-07-29T14:13:07;34.00;85.00
18777;DHT22;9517;51.174;4.160;2022-07-29T14:15:36;33.30;84.00
18777;DHT22;9517;51.174;4.160;2022-07-29T14:18:03;33.20;85.10
18777;DHT22;9517;51.174;4.160;2022-07-29T14:20:31;33.30;86.70
18777;DHT22;9517;51.174;4.160;2022-07-29T14:22:58;34.00;83.60
18777;DHT22;9517;51.174;4.160;2022-07-29T14:25:25;34.20;85.00
18777;DHT22;9517;51.174;4.160;2022-07-29T14:27:52;34.10;84.80
18777;DHT22;9517;51.174;4.160;2022-07-29T14:30:19;34.00;83.30
18777;DHT22;9517;51.174;4.160;2022-07-29T14:32:48;34.00;83.50
18777;DHT22;9517;51.174;4.160;2022-07-29T14:35:15;34.10;84.70
18777;DHT22;9517;51.174;4.160;2022-07-29T14:37:42;33.00;85.70
18777;DHT22;9517;51.174;4.160;2022-07-29T14:40:10;32.10;86.60
18777;DHT22;9517;51.174;4.160;2022-07-29T14:42:38;32.20;87.30
18777;DHT22;9517;51.174;4.160;2022-07-29T14:45:06;32.50;85.90
18777;DHT22;9517;51.174;4.160;2022-07-29T14:47:33;33.20;85.80
18777;DHT22;9517;51.174;4.160;2022-07-29T14:50:03;33.80;86.20
18777;DHT22;9517;51.174;4.160;2022-07-29T14:52:30;34.70;84.90
18777;DHT22;9517;51.174;4.160;2022-07-29T14:54:57;34.80;84.40
18777;DHT22;9517;51.174;4.160;2022-07-29T14:57:25;34.50;84.50
18777;DHT22;9517;51.174;4.160;2022-07-29T14:59:52;34.40;84.40
18777;DHT22;9517;51.174;4.160;2022-07-29T15:02:19;33.90;85.00
18777;DHT22;9517;51.174;4.160;2022-07-29T15:04:46;33.50;84.80
18777;DHT22;9517;51.174;4.160;2022-07-29T15:07:15;32.40;86.80
18777;DHT22;9517;51.174;4.160;2022-07-29T15:09:42;32.30;85.60
18777;DHT22;9517;51.174;4.160;2022-07-29T15:12:10;32.70;85.90
18777;DHT22;9517;51.174;4.160;2022-07-29T15:14:37;32.80;87.30
18777;DHT22;9517;51.174;4.160;2022-07-29T15:17:04;33.20;87.50
18777;DHT22;9517;51.174;4.160;2022-07-29T15:19:31;33.60;88.10
18777;DHT22;9517;51.174;4.160;2022-07-29T15:21:58;34.20;89.30
18777;DHT22;9517;51.174;4.160;2022-07-29T15:24:27;34.60;88.80
18777;DHT22;9517;51.174;4.160;2022-07-29T15:26:54;33.80;87.20
18777;DHT22;9517;51.174;4.160;2022-07-29T15:29:21;32.70;86.30
18777;DHT22;9517;51.174;4.160;2022-07-29T15:31:49;31.20;88.40
18777;DHT22;9517;51.174;4.160;2022-07-29T15:34:16;30.30;90.40
18777;DHT22;9517;51.174;4.160;2022-07-29T15:36:43;30.30;91.30
18777;DHT22;9517;51.174;4.160;2022-07-29T15:39:10;30.10;91.20
18777;DHT22;9517;51.174;4.160;2022-07-29T15:41:38;29.80;91.10
18777;DHT22;9517;51.174;4.160;2022-07-29T15:44:05;29.30;91.70
18777;DHT22;9517;51.174;4.160;2022-07-29T15:46:32;29.60;91.70
18777;DHT22;9517;51.174;4.160;2022-07-29T15:49:17;30.50;91.60
18777;DHT22;9517;51.174;4.160;2022-07-29T15:51:44;31.90;91.00
18777;DHT22;9517;51.174;4.160;2022-07-29T15:54:11;32.60;90.70
18777;DHT22;9517;51.174;4.160;2022-07-29T15:56:39;31.70;89.10
18777;DHT22;9517;51.174;4.160;2022-07-29T15:59:06;31.30;90.20
18777;DHT22;9517;51.174;4.160;2022-07-29T16:01:33;30.70;91.30